Time,TemperatureF,DewpointF,PressureIn,WindDirection,WindDirectionDegrees,WindSpeedMPH,WindSpeedGustMPH,Humidity,HourlyPrecipIn,Conditions,Clouds,dailyrainin,SoftwareType,DateUTC
2013-07-17 00:01:00,80.2,66.5,30.26,North,0,0.7,2.2,63,0.00,,,0.00,pywws,2013-07-17 04:01:00,
2013-07-17 00:02:00,80.2,66.5,30.26,North,0,1.6,3.1,63,0.00,,,0.00,pywws,2013-07-17 04:02:00,
2013-07-17 00:04:00,80.1,66.3,30.26,NW,315,0.7,1.6,63,0.00,,,0.00,pywws,2013-07-17 04:04:00,
2013-07-17 00:06:00,80.1,66.3,30.26,North,0,0.7,2.2,63,0.00,,,0.00,pywws,2013-07-17 04:06:00,
2013-07-17 00:08:00,79.9,66.1,30.25,North,0,0.0,0.7,63,0.00,,,0.00,pywws,2013-07-17 04:08:00,
2013-07-17 00:14:00,79.9,66.1,30.26,North,0,0.0,0.7,63,0.00,,,0.00,pywws,2013-07-17 04:14:00,
2013-07-17 00:19:00,79.7,66.4,30.26,SW,225,0.0,0.7,64,0.00,,,0.00,pywws,2013-07-17 04:19:00,
2013-07-17 00:25:00,79.5,66.3,30.26,NE,45,0.0,0.7,64,0.00,,,0.00,pywws,2013-07-17 04:25:00,
2013-07-17 00:31:00,79.3,66.1,30.26,North,0,0.7,1.6,64,0.00,,,0.00,pywws,2013-07-17 04:31:00,
2013-07-17 00:37:00,79.3,66.1,30.26,East,90,0.7,2.2,64,0.00,,,0.00,pywws,2013-07-17 04:37:00,
2013-07-17 00:43:00,79.2,65.9,30.25,North,0,0.7,1.6,64,0.00,,,0.00,pywws,2013-07-17 04:43:00,
2013-07-17 00:48:00,79.0,66.2,30.25,North,0,0.7,1.6,65,0.00,,,0.00,pywws,2013-07-17 04:48:00,
2013-07-17 00:54:00,79.0,66.2,30.25,NW,315,0.7,1.6,65,0.00,,,0.00,pywws,2013-07-17 04:54:00,
2013-07-17 00:59:00,78.8,66.0,30.25,NE,45,0.0,0.7,65,0.00,,,0.00,pywws,2013-07-17 04:59:00,
2013-07-17 01:00:00,78.8,66.0,30.25,North,0,0.0,0.7,65,0.00,,,0.00,pywws,2013-07-17 05:00:00,
2013-07-17 01:06:00,78.8,66.0,30.25,North,0,0.0,0.7,65,0.00,,,0.00,pywws,2013-07-17 05:06:00,
2013-07-17 01:11:00,78.6,66.3,30.25,North,0,0.0,0.7,66,0.00,,,0.00,pywws,2013-07-17 05:11:00,
2013-07-17 01:17:00,78.4,66.6,30.25,NE,45,2.2,3.1,67,0.00,,,0.00,pywws,2013-07-17 05:17:00,
2013-07-17 01:23:00,78.4,66.6,30.25,North,0,1.6,1.6,67,0.00,,,0.00,pywws,2013-07-17 05:23:00,
2013-07-17 01:28:00,78.3,66.4,30.25,NE,45,0.7,1.6,67,0.00,,,0.00,pywws,2013-07-17 05:28:00,
2013-07-17 01:34:00,78.3,66.8,30.25,NW,315,2.2,3.8,68,0.00,,,0.00,pywws,2013-07-17 05:34:00,
2013-07-17 01:39:00,78.1,66.6,30.25,NW,315,2.2,3.1,68,0.00,,,0.00,pywws,2013-07-17 05:39:00,
2013-07-17 01:45:00,78.3,66.8,30.25,East,90,0.0,1.6,68,0.00,,,0.00,pywws,2013-07-17 05:45:00,
2013-07-17 01:51:00,78.1,66.2,30.25,East,90,0.7,1.6,67,0.00,,,0.00,pywws,2013-07-17 05:51:00,
2013-07-17 01:57:00,78.1,66.6,30.25,NE,45,1.6,3.1,68,0.00,,,0.00,pywws,2013-07-17 05:57:00,
2013-07-17 02:03:00,78.1,66.6,30.24,NE,45,0.0,0.7,68,0.00,,,0.00,pywws,2013-07-17 06:03:00,
2013-07-17 02:08:00,77.9,66.5,30.24,NNW,338,1.6,2.2,68,0.00,,,0.00,pywws,2013-07-17 06:08:00,
2013-07-17 02:14:00,77.7,66.3,30.24,NW,315,1.6,2.2,68,0.00,,,0.00,pywws,2013-07-17 06:14:00,
2013-07-17 02:19:00,77.7,66.3,30.24,NW,315,1.6,2.2,68,0.00,,,0.00,pywws,2013-07-17 06:19:00,
2013-07-17 02:25:00,77.5,66.5,30.24,NW,315,1.6,3.1,69,0.00,,,0.00,pywws,2013-07-17 06:25:00,
2013-07-17 02:31:00,77.4,66.4,30.24,North,0,0.7,1.6,69,0.00,,,0.00,pywws,2013-07-17 06:31:00,
2013-07-17 02:36:00,77.4,66.4,30.24,NW,315,0.0,0.7,69,0.00,,,0.00,pywws,2013-07-17 06:36:00,
2013-07-17 02:42:00,77.2,66.2,30.24,North,0,1.6,2.2,69,0.00,,,0.00,pywws,2013-07-17 06:42:00,
2013-07-17 02:47:00,77.2,66.2,30.24,North,0,1.6,2.2,69,0.00,,,0.00,pywws,2013-07-17 06:47:00,
2013-07-17 02:53:00,77.2,66.2,30.24,North,0,0.7,1.6,69,0.00,,,0.00,pywws,2013-07-17 06:53:00,
2013-07-17 02:59:00,77.0,66.0,30.24,North,0,0.0,1.6,69,0.00,,,0.00,pywws,2013-07-17 06:59:00,
2013-07-17 03:04:00,77.0,66.4,30.24,North,0,0.0,0.7,70,0.00,,,0.00,pywws,2013-07-17 07:04:00,
2013-07-17 03:10:00,76.8,66.7,30.24,North,0,0.7,2.2,71,0.00,,,0.00,pywws,2013-07-17 07:10:00,
2013-07-17 03:15:00,76.8,66.7,30.24,North,0,0.7,1.6,71,0.00,,,0.00,pywws,2013-07-17 07:15:00,
2013-07-17 03:21:00,76.8,66.7,30.24,NW,315,0.7,1.6,71,0.00,,,0.00,pywws,2013-07-17 07:21:00,
2013-07-17 03:27:00,76.8,66.7,30.24,NW,315,1.6,2.2,71,0.00,,,0.00,pywws,2013-07-17 07:27:00,
2013-07-17 03:32:00,76.8,66.7,30.24,NE,45,1.6,2.2,71,0.00,,,0.00,pywws,2013-07-17 07:32:00,
2013-07-17 03:38:00,76.8,66.3,30.24,NW,315,0.7,1.6,70,0.00,,,0.00,pywws,2013-07-17 07:38:00,
2013-07-17 03:43:00,76.8,66.3,30.24,North,0,0.7,1.6,70,0.00,,,0.00,pywws,2013-07-17 07:43:00,
2013-07-17 03:49:00,76.8,66.3,30.24,North,0,0.0,0.7,70,0.00,,,0.00,pywws,2013-07-17 07:49:00,
2013-07-17 03:55:00,76.8,66.3,30.24,NW,315,0.7,1.6,70,0.00,,,0.00,pywws,2013-07-17 07:55:00,
2013-07-17 04:00:00,76.6,66.1,30.24,NW,315,0.7,2.2,70,0.00,,,0.00,pywws,2013-07-17 08:00:00,
2013-07-17 04:06:00,76.6,66.5,30.24,NW,315,0.7,2.2,71,0.00,,,0.00,pywws,2013-07-17 08:06:00,
2013-07-17 04:11:00,76.5,65.9,30.24,NW,315,2.2,3.1,70,0.00,,,0.00,pywws,2013-07-17 08:11:00,
2013-07-17 04:17:00,76.5,65.9,30.24,NW,315,1.6,2.2,70,0.00,,,0.00,pywws,2013-07-17 08:17:00,
2013-07-17 04:23:00,76.5,65.9,30.24,North,0,0.0,1.6,70,0.00,,,0.00,pywws,2013-07-17 08:23:00,
2013-07-17 04:28:00,76.5,65.9,30.24,NW,315,0.7,2.2,70,0.00,,,0.00,pywws,2013-07-17 08:28:00,
2013-07-17 04:34:00,76.5,65.9,30.24,North,0,1.6,2.2,70,0.00,,,0.00,pywws,2013-07-17 08:34:00,
2013-07-17 04:39:00,76.3,65.8,30.25,North,0,1.6,3.1,70,0.00,,,0.00,pywws,2013-07-17 08:39:00,
2013-07-17 04:45:00,76.3,65.8,30.25,North,0,1.6,2.2,70,0.00,,,0.00,pywws,2013-07-17 08:45:00,
2013-07-17 04:51:00,76.3,65.8,30.25,NW,315,0.7,2.2,70,0.00,,,0.00,pywws,2013-07-17 08:51:00,
2013-07-17 04:56:00,76.1,65.6,30.25,North,0,0.7,1.6,70,0.00,,,0.00,pywws,2013-07-17 08:56:00,
2013-07-17 05:02:00,76.1,66.0,30.25,NW,315,0.7,1.6,71,0.00,,,0.00,pywws,2013-07-17 09:02:00,
2013-07-17 05:07:00,76.1,66.0,30.26,NW,315,0.7,2.2,71,0.00,,,0.00,pywws,2013-07-17 09:07:00,
2013-07-17 05:13:00,75.9,65.8,30.26,North,0,0.7,1.6,71,0.00,,,0.00,pywws,2013-07-17 09:13:00,
2013-07-17 05:19:00,75.7,65.7,30.26,North,0,0.7,1.6,71,0.00,,,0.00,pywws,2013-07-17 09:19:00,
2013-07-17 05:24:00,75.7,65.7,30.25,North,0,0.0,0.7,71,0.00,,,0.00,pywws,2013-07-17 09:24:00,
2013-07-17 05:30:00,75.6,65.5,30.26,NE,45,0.0,0.7,71,0.00,,,0.00,pywws,2013-07-17 09:30:00,
2013-07-17 05:36:00,75.4,65.7,30.26,NE,45,0.0,0.0,72,0.00,,,0.00,pywws,2013-07-17 09:36:00,
2013-07-17 05:42:00,75.2,65.5,30.27,NW,315,0.7,1.6,72,0.00,,,0.00,pywws,2013-07-17 09:42:00,
2013-07-17 05:47:00,75.2,65.5,30.27,North,0,0.0,0.7,72,0.00,,,0.00,pywws,2013-07-17 09:47:00,
2013-07-17 05:53:00,75.2,65.9,30.27,North,0,0.0,0.0,73,0.00,,,0.00,pywws,2013-07-17 09:53:00,
2013-07-17 05:59:00,75.0,66.2,30.27,North,0,0.7,1.6,74,0.00,,,0.00,pywws,2013-07-17 09:59:00,
2013-07-17 06:04:00,74.8,66.0,30.27,North,0,0.0,0.7,74,0.00,,,0.00,pywws,2013-07-17 10:04:00,
2013-07-17 06:10:00,74.8,66.4,30.27,North,0,0.0,0.0,75,0.00,,,0.00,pywws,2013-07-17 10:10:00,
2013-07-17 06:15:00,74.7,66.2,30.27,NW,315,0.7,1.6,75,0.00,,,0.00,pywws,2013-07-17 10:15:00,
2013-07-17 06:21:00,74.7,66.2,30.27,West,270,0.7,1.6,75,0.00,,,0.00,pywws,2013-07-17 10:21:00,
2013-07-17 06:27:00,74.7,66.2,30.28,NW,315,1.6,2.2,75,0.00,,,0.00,pywws,2013-07-17 10:27:00,
2013-07-17 06:32:00,74.7,66.2,30.27,NW,315,1.6,2.2,75,0.00,,,0.00,pywws,2013-07-17 10:32:00,
2013-07-17 06:38:00,74.8,66.4,30.27,North,0,0.7,2.2,75,0.00,,,0.00,pywws,2013-07-17 10:38:00,
2013-07-17 06:43:00,74.8,66.4,30.27,NW,315,0.7,1.6,75,0.00,,,0.00,pywws,2013-07-17 10:43:00,
2013-07-17 06:49:00,75.0,66.5,30.27,North,0,0.7,2.2,75,0.00,,,0.00,pywws,2013-07-17 10:49:00,
2013-07-17 06:55:00,75.4,66.5,30.28,North,0,0.7,1.6,74,0.00,,,0.00,pywws,2013-07-17 10:55:00,
2013-07-17 07:00:00,75.7,66.5,30.28,North,0,0.0,0.7,73,0.00,,,0.00,pywws,2013-07-17 11:00:00,
2013-07-17 07:06:00,76.1,66.8,30.27,NW,315,1.6,2.2,73,0.00,,,0.00,pywws,2013-07-17 11:06:00,
2013-07-17 07:11:00,76.5,66.7,30.28,NW,315,0.7,1.6,72,0.00,,,0.00,pywws,2013-07-17 11:11:00,
2013-07-17 07:17:00,76.8,67.1,30.28,West,270,0.7,1.6,72,0.00,,,0.00,pywws,2013-07-17 11:17:00,
2013-07-17 07:23:00,77.2,66.6,30.28,NW,315,2.2,3.1,70,0.00,,,0.00,pywws,2013-07-17 11:23:00,
2013-07-17 07:28:00,77.5,67.0,30.28,NW,315,1.6,3.1,70,0.00,,,0.00,pywws,2013-07-17 11:28:00,
2013-07-17 07:34:00,77.9,66.9,30.28,NW,315,2.2,3.1,69,0.00,,,0.00,pywws,2013-07-17 11:34:00,
2013-07-17 07:39:00,78.1,67.1,30.28,NW,315,1.6,2.2,69,0.00,,,0.00,pywws,2013-07-17 11:39:00,
2013-07-17 07:45:00,78.3,66.8,30.28,West,270,1.6,2.2,68,0.00,,,0.00,pywws,2013-07-17 11:45:00,
2013-07-17 07:51:00,78.4,67.0,30.28,North,0,0.0,1.6,68,0.00,,,0.00,pywws,2013-07-17 11:51:00,
2013-07-17 07:56:00,78.8,66.5,30.28,NW,315,1.6,2.2,66,0.00,,,0.00,pywws,2013-07-17 11:56:00,
2013-07-17 08:02:00,79.0,66.6,30.28,NE,45,0.0,0.7,66,0.00,,,0.00,pywws,2013-07-17 12:02:00,
2013-07-17 08:07:00,79.0,66.6,30.28,NE,45,0.7,3.1,66,0.00,,,0.00,pywws,2013-07-17 12:07:00,
2013-07-17 08:13:00,79.3,66.5,30.28,North,0,2.2,3.1,65,0.00,,,0.00,pywws,2013-07-17 12:13:00,
2013-07-17 08:19:00,79.5,66.7,30.28,North,0,0.7,2.2,65,0.00,,,0.00,pywws,2013-07-17 12:19:00,
2013-07-17 08:24:00,79.9,67.0,30.29,North,0,0.7,2.2,65,0.00,,,0.00,pywws,2013-07-17 12:24:00,
2013-07-17 08:30:00,80.1,67.2,30.29,NW,315,0.7,1.6,65,0.00,,,0.00,pywws,2013-07-17 12:30:00,
2013-07-17 08:35:00,80.4,67.6,30.29,NE,45,3.8,5.4,65,0.00,,,0.00,pywws,2013-07-17 12:35:00,
2013-07-17 08:41:00,80.6,67.3,30.29,WNW,292,5.4,7.6,64,0.00,,,0.00,pywws,2013-07-17 12:41:00,
2013-07-17 08:47:00,80.8,67.4,30.29,ESE,112,0.7,2.2,64,0.00,,,0.00,pywws,2013-07-17 12:47:00,
2013-07-17 08:52:00,81.3,67.5,30.29,NNE,22,2.2,3.8,63,0.00,,,0.00,pywws,2013-07-17 12:52:00,
2013-07-17 08:58:00,81.5,67.7,30.29,NE,45,0.7,1.6,63,0.00,,,0.00,pywws,2013-07-17 12:58:00,
2013-07-17 09:03:00,82.0,68.2,30.28,NW,315,4.5,6.9,63,0.00,,,0.00,pywws,2013-07-17 13:03:00,
2013-07-17 09:09:00,82.6,68.2,30.28,North,0,3.1,3.8,62,0.00,,,0.00,pywws,2013-07-17 13:09:00,
2013-07-17 09:15:00,83.1,69.7,30.28,NW,315,1.6,3.8,64,0.00,,,0.00,pywws,2013-07-17 13:15:00,
2013-07-17 09:20:00,84.2,69.3,30.28,NE,45,0.7,1.6,61,0.00,,,0.00,pywws,2013-07-17 13:20:00,
2013-07-17 09:26:00,85.1,69.1,30.28,SW,225,0.7,2.2,59,0.00,,,0.00,pywws,2013-07-17 13:26:00,
2013-07-17 09:31:00,86.2,69.6,30.29,ESE,112,0.7,1.6,58,0.00,,,0.00,pywws,2013-07-17 13:31:00,
2013-07-17 09:37:00,86.9,69.3,30.28,North,0,2.2,3.8,56,0.00,,,0.00,pywws,2013-07-17 13:37:00,
2013-07-17 09:43:00,87.3,69.6,30.28,East,90,0.7,1.6,56,0.00,,,0.00,pywws,2013-07-17 13:43:00,
2013-07-17 09:48:00,87.8,69.6,30.28,NW,315,1.6,3.1,55,0.00,,,0.00,pywws,2013-07-17 13:48:00,
2013-07-17 09:54:00,88.0,69.2,30.28,NE,45,2.2,3.8,54,0.00,,,0.00,pywws,2013-07-17 13:54:00,
2013-07-17 09:59:00,88.5,69.7,30.28,NE,45,0.7,2.2,54,0.00,,,0.00,pywws,2013-07-17 13:59:00,
2013-07-17 10:05:00,88.9,70.6,30.28,East,90,0.7,1.6,55,0.00,,,0.00,pywws,2013-07-17 14:05:00,
2013-07-17 10:11:00,89.8,69.8,30.28,North,0,3.8,5.4,52,0.00,,,0.00,pywws,2013-07-17 14:11:00,
2013-07-17 10:16:00,90.3,70.3,30.28,South,180,3.1,6.0,52,0.00,,,0.00,pywws,2013-07-17 14:16:00,
2013-07-17 10:22:00,91.4,70.7,30.28,NE,45,0.7,2.2,51,0.00,,,0.00,pywws,2013-07-17 14:22:00,
2013-07-17 10:27:00,92.3,70.9,30.28,East,90,1.6,3.1,50,0.00,,,0.00,pywws,2013-07-17 14:27:00,
2013-07-17 10:33:00,92.7,71.8,30.27,North,0,1.6,3.1,51,0.00,,,0.00,pywws,2013-07-17 14:33:00,
2013-07-17 10:39:00,93.0,71.6,30.27,West,270,1.6,3.8,50,0.00,,,0.00,pywws,2013-07-17 14:39:00,
2013-07-17 10:44:00,93.0,71.0,30.27,North,0,2.2,3.1,49,0.00,,,0.00,pywws,2013-07-17 14:44:00,
2013-07-17 10:50:00,92.8,70.8,30.27,NNE,22,3.8,6.0,49,0.00,,,0.00,pywws,2013-07-17 14:50:00,
2013-07-17 10:55:00,93.0,70.4,30.28,North,0,2.2,3.8,48,0.00,,,0.00,pywws,2013-07-17 14:55:00,
2013-07-17 11:01:00,93.2,69.9,30.27,North,0,1.6,5.4,47,0.00,,,0.00,pywws,2013-07-17 15:01:00,
2013-07-17 11:07:00,93.4,70.1,30.27,North,0,2.2,3.1,47,0.00,,,0.00,pywws,2013-07-17 15:07:00,
2013-07-17 11:12:00,93.6,70.3,30.27,WNW,292,0.7,2.2,47,0.00,,,0.00,pywws,2013-07-17 15:12:00,
2013-07-17 11:18:00,93.7,70.4,30.27,East,90,2.2,3.1,47,0.00,,,0.00,pywws,2013-07-17 15:18:00,
2013-07-17 11:23:00,94.1,71.4,30.27,NE,45,3.1,4.5,48,0.00,,,0.00,pywws,2013-07-17 15:23:00,
2013-07-17 11:29:00,93.7,69.8,30.27,North,0,0.7,2.2,46,0.00,,,0.00,pywws,2013-07-17 15:29:00,
2013-07-17 11:35:00,93.4,70.1,30.27,North,0,2.2,4.5,47,0.00,,,0.00,pywws,2013-07-17 15:35:00,
2013-07-17 11:40:00,93.4,70.1,30.26,WSW,248,3.8,6.0,47,0.00,,,0.00,pywws,2013-07-17 15:40:00,
2013-07-17 11:46:00,93.4,69.5,30.26,North,0,1.6,2.2,46,0.00,,,0.00,pywws,2013-07-17 15:46:00,
2013-07-17 11:52:00,93.4,69.5,30.26,NW,315,3.8,5.4,46,0.00,,,0.00,pywws,2013-07-17 15:52:00,
2013-07-17 11:58:00,93.4,70.1,30.26,West,270,2.2,3.8,47,0.00,,,0.00,pywws,2013-07-17 15:58:00,
2013-07-17 12:03:00,93.0,70.4,30.26,West,270,0.7,2.2,48,0.00,,,0.00,pywws,2013-07-17 16:03:00,
2013-07-17 12:09:00,93.0,69.8,30.26,North,0,3.1,3.8,47,0.00,,,0.00,pywws,2013-07-17 16:09:00,
2013-07-17 12:15:00,92.7,69.4,30.25,North,0,1.6,3.1,47,0.00,,,0.00,pywws,2013-07-17 16:15:00,
2013-07-17 12:20:00,93.2,69.9,30.25,NE,45,1.6,3.1,47,0.00,,,0.00,pywws,2013-07-17 16:20:00,
2013-07-17 12:26:00,93.7,69.1,30.25,NW,315,0.7,1.6,45,0.00,,,0.00,pywws,2013-07-17 16:26:00,
2013-07-17 12:31:00,94.6,70.6,30.25,NE,45,2.2,4.5,46,0.00,,,0.00,pywws,2013-07-17 16:31:00,
2013-07-17 12:37:00,95.0,69.6,30.25,NW,315,2.2,3.8,44,0.00,,,0.00,pywws,2013-07-17 16:37:00,
2013-07-17 12:43:00,95.2,70.4,30.25,North,0,0.7,2.2,45,0.00,,,0.00,pywws,2013-07-17 16:43:00,
2013-07-17 12:48:00,95.9,70.4,30.24,NE,45,0.7,1.6,44,0.00,,,0.00,pywws,2013-07-17 16:48:00,
2013-07-17 12:54:00,96.4,70.9,30.24,WNW,292,3.8,5.4,44,0.00,,,0.00,pywws,2013-07-17 16:54:00,
2013-07-17 12:59:00,95.5,69.4,30.24,North,0,3.8,6.0,43,0.00,,,0.00,pywws,2013-07-17 16:59:00,
2013-07-17 13:05:00,94.8,70.1,30.24,North,0,2.2,3.8,45,0.00,,,0.00,pywws,2013-07-17 17:05:00,
2013-07-17 13:11:00,94.3,69.0,30.24,North,0,3.1,4.5,44,0.00,,,0.00,pywws,2013-07-17 17:11:00,
2013-07-17 13:17:00,94.5,69.1,30.24,ESE,112,2.2,4.5,44,0.00,,,0.00,pywws,2013-07-17 17:17:00,
2013-07-17 13:23:00,94.8,69.5,30.24,East,90,2.2,3.1,44,0.00,,,0.00,pywws,2013-07-17 17:23:00,
2013-07-17 13:28:00,95.5,69.4,30.23,NW,315,3.1,4.5,43,0.00,,,0.00,pywws,2013-07-17 17:28:00,
2013-07-17 13:34:00,95.2,69.1,30.23,NW,315,4.5,6.0,43,0.00,,,0.00,pywws,2013-07-17 17:34:00,
2013-07-17 13:39:00,95.2,69.1,30.23,West,270,1.6,3.1,43,0.00,,,0.00,pywws,2013-07-17 17:39:00,
2013-07-17 13:45:00,95.5,70.1,30.23,North,0,2.2,3.8,44,0.00,,,0.00,pywws,2013-07-17 17:45:00,
2013-07-17 13:51:00,96.1,70.6,30.23,NE,45,1.6,2.2,44,0.00,,,0.00,pywws,2013-07-17 17:51:00,
2013-07-17 13:56:00,96.6,70.4,30.22,NW,315,2.2,3.1,43,0.00,,,0.00,pywws,2013-07-17 17:56:00,
2013-07-17 14:02:00,96.8,69.9,30.23,East,90,1.6,2.2,42,0.00,,,0.00,pywws,2013-07-17 18:02:00,
2013-07-17 14:07:00,95.9,68.4,30.22,NW,315,0.0,0.7,41,0.00,,,0.00,pywws,2013-07-17 18:07:00,
2013-07-17 14:13:00,95.0,68.9,30.22,South,180,0.7,1.6,43,0.00,,,0.00,pywws,2013-07-17 18:13:00,
2013-07-17 14:19:00,95.0,68.9,30.22,West,270,0.7,1.6,43,0.00,,,0.00,pywws,2013-07-17 18:19:00,
2013-07-17 14:24:00,95.5,68.7,30.22,SW,225,2.2,3.1,42,0.00,,,0.00,pywws,2013-07-17 18:24:00,
2013-07-17 14:30:00,95.5,69.4,30.22,NW,315,0.7,2.2,43,0.00,,,0.00,pywws,2013-07-17 18:30:00,
2013-07-17 14:35:00,96.1,69.9,30.22,NW,315,3.1,3.8,43,0.00,,,0.00,pywws,2013-07-17 18:35:00,
2013-07-17 14:41:00,96.8,69.9,30.21,East,90,3.1,5.4,42,0.00,,,0.00,pywws,2013-07-17 18:41:00,
2013-07-17 14:47:00,97.2,68.8,30.22,North,0,4.5,7.6,40,0.00,,,0.00,pywws,2013-07-17 18:47:00,
2013-07-17 14:52:00,97.2,68.0,30.21,North,0,1.6,3.1,39,0.00,,,0.00,pywws,2013-07-17 18:52:00,
2013-07-17 14:58:00,97.2,68.0,30.21,East,90,1.6,3.1,39,0.00,,,0.00,pywws,2013-07-17 18:58:00,
2013-07-17 15:03:00,97.2,68.0,30.20,SE,135,3.8,4.5,39,0.00,,,0.00,pywws,2013-07-17 19:03:00,
2013-07-17 15:09:00,96.8,67.7,30.21,NW,315,2.2,3.1,39,0.00,,,0.00,pywws,2013-07-17 19:09:00,
2013-07-17 15:15:00,96.8,68.4,30.20,NNE,22,4.5,6.9,40,0.00,,,0.00,pywws,2013-07-17 19:15:00,
2013-07-17 15:20:00,97.2,68.8,30.20,NW,315,3.1,4.5,40,0.00,,,0.00,pywws,2013-07-17 19:20:00,
2013-07-17 15:26:00,97.3,68.2,30.20,NW,315,3.1,4.5,39,0.00,,,0.00,pywws,2013-07-17 19:26:00,
2013-07-17 15:32:00,97.2,66.5,30.20,North,0,5.4,6.9,37,0.00,,,0.00,pywws,2013-07-17 19:32:00,
2013-07-17 15:38:00,97.2,66.5,30.19,North,0,1.6,3.1,37,0.00,,,0.00,pywws,2013-07-17 19:38:00,
2013-07-17 15:43:00,97.2,66.5,30.19,NW,315,3.1,6.9,37,0.00,,,0.00,pywws,2013-07-17 19:43:00,
2013-07-17 15:49:00,97.0,66.3,30.19,SE,135,0.0,1.6,37,0.00,,,0.00,pywws,2013-07-17 19:49:00,
2013-07-17 15:55:00,96.6,66.0,30.19,NW,315,0.7,1.6,37,0.00,,,0.00,pywws,2013-07-17 19:55:00,
2013-07-17 16:00:00,96.4,66.6,30.18,West,270,1.6,3.8,38,0.00,,,0.00,pywws,2013-07-17 20:00:00,
2013-07-17 16:06:00,96.6,67.5,30.18,NE,45,0.7,2.2,39,0.00,,,0.00,pywws,2013-07-17 20:06:00,
2013-07-17 16:12:00,96.8,66.9,30.18,NW,315,3.1,5.4,38,0.00,,,0.00,pywws,2013-07-17 20:12:00,
2013-07-17 16:18:00,97.0,66.3,30.18,North,0,2.2,3.8,37,0.00,,,0.00,pywws,2013-07-17 20:18:00,
2013-07-17 16:23:00,96.8,65.4,30.17,WNW,292,2.2,3.1,36,0.00,,,0.00,pywws,2013-07-17 20:23:00,
2013-07-17 16:29:00,96.8,66.2,30.17,North,0,2.2,3.1,37,0.00,,,0.00,pywws,2013-07-17 20:29:00,
2013-07-17 16:35:00,97.0,66.3,30.17,NE,45,1.6,2.2,37,0.00,,,0.00,pywws,2013-07-17 20:35:00,
2013-07-17 16:40:00,97.0,66.3,30.17,NW,315,3.1,3.8,37,0.00,,,0.00,pywws,2013-07-17 20:40:00,
2013-07-17 16:46:00,97.2,66.5,30.17,North,0,3.1,4.5,37,0.00,,,0.00,pywws,2013-07-17 20:46:00,
2013-07-17 16:52:00,97.2,65.7,30.17,NW,315,0.7,2.2,36,0.00,,,0.00,pywws,2013-07-17 20:52:00,
2013-07-17 16:58:00,97.0,64.7,30.17,North,0,4.5,5.4,35,0.00,,,0.00,pywws,2013-07-17 20:58:00,
2013-07-17 17:04:00,97.2,64.9,30.17,NW,315,3.1,6.0,35,0.00,,,0.00,pywws,2013-07-17 21:04:00,
2013-07-17 17:10:00,97.2,64.9,30.16,West,270,4.5,7.6,35,0.00,,,0.00,pywws,2013-07-17 21:10:00,
2013-07-17 17:15:00,97.0,65.5,30.17,NW,315,3.1,5.4,36,0.00,,,0.00,pywws,2013-07-17 21:15:00,
2013-07-17 17:21:00,96.6,66.0,30.17,West,270,2.2,3.8,37,0.00,,,0.00,pywws,2013-07-17 21:21:00,
2013-07-17 17:27:00,95.7,66.0,30.16,West,270,3.1,5.4,38,0.00,,,0.00,pywws,2013-07-17 21:27:00,
2013-07-17 17:32:00,95.0,66.1,30.16,WNW,292,3.1,3.8,39,0.00,,,0.00,pywws,2013-07-17 21:32:00,
2013-07-17 17:38:00,94.5,66.4,30.16,WNW,292,2.2,3.8,40,0.00,,,0.00,pywws,2013-07-17 21:38:00,
2013-07-17 17:43:00,94.1,67.4,30.16,SW,225,5.4,7.6,42,0.00,,,0.00,pywws,2013-07-17 21:43:00,
2013-07-17 17:49:00,93.6,67.6,30.16,West,270,2.2,3.8,43,0.00,,,0.00,pywws,2013-07-17 21:49:00,
2013-07-17 17:55:00,93.2,68.0,30.16,NW,315,3.8,6.0,44,0.00,,,0.00,pywws,2013-07-17 21:55:00,
2013-07-17 18:00:00,93.2,68.0,30.16,NW,315,0.7,2.2,44,0.00,,,0.00,pywws,2013-07-17 22:00:00,
2013-07-17 18:06:00,93.4,68.2,30.16,North,0,3.8,6.0,44,0.00,,,0.00,pywws,2013-07-17 22:06:00,
2013-07-17 18:11:00,93.6,67.6,30.16,North,0,3.8,5.4,43,0.00,,,0.00,pywws,2013-07-17 22:11:00,
2013-07-17 18:17:00,93.9,68.6,30.16,West,270,1.6,3.1,44,0.00,,,0.00,pywws,2013-07-17 22:17:00,
2013-07-17 18:23:00,94.3,68.3,30.16,North,0,5.4,9.8,43,0.00,,,0.00,pywws,2013-07-17 22:23:00,
2013-07-17 18:28:00,94.5,68.5,30.16,North,0,2.2,3.8,43,0.00,,,0.00,pywws,2013-07-17 22:28:00,
2013-07-17 18:34:00,94.6,68.6,30.16,NW,315,2.2,5.4,43,0.00,,,0.00,pywws,2013-07-17 22:34:00,
2013-07-17 18:39:00,94.6,68.6,30.16,NW,315,2.2,3.8,43,0.00,,,0.00,pywws,2013-07-17 22:39:00,
2013-07-17 18:45:00,94.8,68.8,30.16,West,270,3.8,5.4,43,0.00,,,0.00,pywws,2013-07-17 22:45:00,
2013-07-17 18:51:00,94.6,69.3,30.16,West,270,3.1,4.5,44,0.00,,,0.00,pywws,2013-07-17 22:51:00,
2013-07-17 18:57:00,94.5,69.1,30.16,East,90,0.7,3.1,44,0.00,,,0.00,pywws,2013-07-17 22:57:00,
2013-07-17 19:03:00,94.1,68.8,30.16,South,180,0.7,2.2,44,0.00,,,0.00,pywws,2013-07-17 23:03:00,
2013-07-17 19:08:00,93.9,68.6,30.16,East,90,0.0,1.6,44,0.00,,,0.00,pywws,2013-07-17 23:08:00,
2013-07-17 19:14:00,94.1,68.8,30.16,East,90,0.7,1.6,44,0.00,,,0.00,pywws,2013-07-17 23:14:00,
2013-07-17 19:19:00,94.6,69.3,30.16,SE,135,0.7,2.2,44,0.00,,,0.00,pywws,2013-07-17 23:19:00,
2013-07-17 19:25:00,94.1,68.8,30.16,East,90,1.6,3.1,44,0.00,,,0.00,pywws,2013-07-17 23:25:00,
2013-07-17 19:31:00,92.8,68.3,30.16,SE,135,0.7,1.6,45,0.00,,,0.00,pywws,2013-07-17 23:31:00,
2013-07-17 19:37:00,91.8,68.0,30.16,SW,225,0.0,1.6,46,0.00,,,0.00,pywws,2013-07-17 23:37:00,
2013-07-17 19:43:00,90.5,66.2,30.16,South,180,1.6,2.2,45,0.00,,,0.00,pywws,2013-07-17 23:43:00,
2013-07-17 19:48:00,90.0,65.7,30.16,NE,45,0.0,0.7,45,0.00,,,0.00,pywws,2013-07-17 23:48:00,
2013-07-17 19:54:00,89.6,66.0,30.16,NW,315,0.0,1.6,46,0.00,,,0.00,pywws,2013-07-17 23:54:00,
2013-07-17 19:59:00,89.1,66.2,30.16,SW,225,0.0,0.7,47,0.00,,,0.00,pywws,2013-07-17 23:59:00,
2013-07-17 20:05:00,88.5,66.3,30.16,SE,135,0.7,1.6,48,0.00,,,0.00,pywws,2013-07-18 00:05:00,
2013-07-17 20:11:00,88.2,66.0,30.15,ESE,112,0.0,0.7,48,0.00,,,0.00,pywws,2013-07-18 00:11:00,
2013-07-17 20:17:00,88.0,66.4,30.16,SE,135,0.0,0.7,49,0.00,,,0.00,pywws,2013-07-18 00:17:00,
2013-07-17 20:23:00,87.8,66.2,30.16,East,90,0.0,0.7,49,0.00,,,0.00,pywws,2013-07-18 00:23:00,
2013-07-17 20:28:00,87.6,66.6,30.16,ESE,112,0.0,0.7,50,0.00,,,0.00,pywws,2013-07-18 00:28:00,
2013-07-17 20:34:00,87.4,66.5,30.15,SSE,158,0.0,0.7,50,0.00,,,0.00,pywws,2013-07-18 00:34:00,
2013-07-17 20:39:00,87.3,66.3,30.15,ESE,112,0.0,1.6,50,0.00,,,0.00,pywws,2013-07-18 00:39:00,
2013-07-17 20:45:00,87.1,66.1,30.15,South,180,0.7,1.6,50,0.00,,,0.00,pywws,2013-07-18 00:45:00,
2013-07-17 20:51:00,86.9,66.6,30.15,East,90,0.0,1.6,51,0.00,,,0.00,pywws,2013-07-18 00:51:00,
2013-07-17 20:57:00,86.5,66.2,30.15,West,270,0.0,0.7,51,0.00,,,0.00,pywws,2013-07-18 00:57:00,
2013-07-17 21:03:00,86.2,65.9,30.15,NW,315,1.6,3.1,51,0.00,,,0.00,pywws,2013-07-18 01:03:00,
2013-07-17 21:08:00,86.0,66.3,30.16,SE,135,0.0,1.6,52,0.00,,,0.00,pywws,2013-07-18 01:08:00,
2013-07-17 21:14:00,85.6,67.1,30.16,South,180,0.0,0.7,54,0.00,,,0.00,pywws,2013-07-18 01:14:00,
2013-07-17 21:19:00,85.5,66.9,30.16,East,90,0.0,0.7,54,0.00,,,0.00,pywws,2013-07-18 01:19:00,
2013-07-17 21:25:00,85.3,66.7,30.16,East,90,0.0,0.7,54,0.00,,,0.00,pywws,2013-07-18 01:25:00,
2013-07-17 21:32:00,84.9,66.4,30.16,East,90,0.0,0.7,54,0.00,,,0.00,pywws,2013-07-18 01:32:00,
2013-07-17 21:38:00,84.7,66.8,30.17,SSE,158,0.0,0.0,55,0.00,,,0.00,pywws,2013-07-18 01:38:00,
2013-07-17 21:43:00,84.6,66.6,30.17,East,90,0.7,1.6,55,0.00,,,0.00,pywws,2013-07-18 01:43:00,
2013-07-17 21:49:00,84.4,66.4,30.17,SW,225,0.7,1.6,55,0.00,,,0.00,pywws,2013-07-18 01:49:00,
2013-07-17 21:55:00,84.2,66.3,30.16,SW,225,0.7,3.1,55,0.00,,,0.00,pywws,2013-07-18 01:55:00,
2013-07-17 22:00:00,84.0,67.1,30.17,SSE,158,0.7,1.6,57,0.00,,,0.00,pywws,2013-07-18 02:00:00,
2013-07-17 22:06:00,83.8,67.0,30.17,NE,45,0.0,0.7,57,0.00,,,0.00,pywws,2013-07-18 02:06:00,
2013-07-17 22:11:00,83.8,67.0,30.17,SW,225,1.6,3.1,57,0.00,,,0.00,pywws,2013-07-18 02:11:00,
2013-07-17 22:17:00,83.7,66.8,30.17,West,270,0.0,1.6,57,0.00,,,0.00,pywws,2013-07-18 02:17:00,
2013-07-17 22:23:00,83.7,66.8,30.17,West,270,0.7,2.2,57,0.00,,,0.00,pywws,2013-07-18 02:23:00,
2013-07-17 22:28:00,83.5,66.6,30.17,South,180,0.7,1.6,57,0.00,,,0.00,pywws,2013-07-18 02:28:00,
2013-07-17 22:34:00,83.5,67.1,30.17,South,180,0.7,1.6,58,0.00,,,0.00,pywws,2013-07-18 02:34:00,
2013-07-17 22:39:00,83.3,67.0,30.17,SW,225,0.7,1.6,58,0.00,,,0.00,pywws,2013-07-18 02:39:00,
2013-07-17 22:45:00,83.3,67.0,30.17,SW,225,2.2,4.5,58,0.00,,,0.00,pywws,2013-07-18 02:45:00,
2013-07-17 22:52:00,83.1,67.3,30.17,SSW,202,1.6,3.8,59,0.00,,,0.00,pywws,2013-07-18 02:52:00,
2013-07-17 22:58:00,83.1,67.3,30.16,NW,315,0.7,1.6,59,0.00,,,0.00,pywws,2013-07-18 02:58:00,
2013-07-17 23:03:00,82.9,67.1,30.16,SE,135,0.0,0.7,59,0.00,,,0.00,pywws,2013-07-18 03:03:00,
2013-07-17 23:09:00,82.9,67.1,30.16,SE,135,0.0,0.0,59,0.00,,,0.00,pywws,2013-07-18 03:09:00,
2013-07-17 23:15:00,82.8,67.4,30.16,SE,135,0.0,0.7,60,0.00,,,0.00,pywws,2013-07-18 03:15:00,
2013-07-17 23:20:00,82.6,67.3,30.16,SE,135,0.0,0.0,60,0.00,,,0.00,pywws,2013-07-18 03:20:00,
2013-07-17 23:26:00,82.4,67.1,30.16,SE,135,0.0,1.6,60,0.00,,,0.00,pywws,2013-07-18 03:26:00,
2013-07-17 23:31:00,82.4,67.6,30.16,East,90,0.0,0.7,61,0.00,,,0.00,pywws,2013-07-18 03:31:00,
2013-07-17 23:37:00,82.2,67.9,30.15,SE,135,0.0,0.0,62,0.00,,,0.00,pywws,2013-07-18 03:37:00,
2013-07-17 23:43:00,82.0,67.7,30.15,SE,135,1.6,2.2,62,0.00,,,0.00,pywws,2013-07-18 03:43:00,
2013-07-17 23:48:00,82.0,67.7,30.15,SE,135,0.0,1.6,62,0.00,,,0.00,pywws,2013-07-18 03:48:00,
2013-07-17 23:54:00,82.0,67.7,30.16,SW,225,1.6,3.1,62,0.00,,,0.00,pywws,2013-07-18 03:54:00,
2013-07-17 23:59:00,82.0,67.7,30.15,East,90,0.0,0.7,62,0.00,,,0.00,pywws,2013-07-18 03:59:00,